Sawyer, Kansas
Current Conditions -  °F | °C
As of 1:15 PM on Friday 21 Nov 2014 (Local Time) from KPTT Reporting Station
Haze Haze  
Wind Chill: 36°   Ceiling: 200
Heat Index: 36°   Visibility: 1.5mi
Dew Point: 36°   Wind: 3mph
Humidity: 100%   Direction: 160°SSE
Pressure: 30.04"   Gusts: NA
Location:  37.5°N, 98.68°W
Report Text: KPTT 211915Z AUTO 16003KT 1 1/2SM BR OVC002 02/02 A3004 RMK AO2
Loading
Personal Weather Stations






























Interactive Weather Map New forecast layout! Learn more

10-Day Weather Forecast

Advertisements
Track Severe Weather on mobile